Terminal Aerodrome Forecast
Issued by NWS

Home | Current Version | Previous Version | Text Only | Print | Product List | Glossary On
Versions: 1 2 3 4 5 6 7 8 9 10 11 12 13 14 15 16 17 18 19 20
000
FTUS43 KICT 041738
TAFSLN
TAF
KSLN 041738Z 0418/0518 14013KT P6SM SCT040 BKN300
     FM050200 14009KT P6SM BKN300
     FM050500 15013KT P6SM BKN080=

USA.gov is the U.S. government's official web portal to all federal, state and local government web resources and services.